createdAt,value
2019-04-23T00:03:58.209Z,10.90
2019-04-23T00:06:42.951Z,10.90
2019-04-23T00:09:22.288Z,10.90
2019-04-23T00:11:46.210Z,10.90
2019-04-23T00:14:24.763Z,10.80
2019-04-23T00:16:49.233Z,10.80
2019-04-23T00:19:24.842Z,10.80
2019-04-23T00:22:10.344Z,10.80
2019-04-23T00:25:40.453Z,10.70
2019-04-23T00:27:35.295Z,10.70
2019-04-23T00:30:26.718Z,10.70
2019-04-23T00:32:42.655Z,10.70
2019-04-23T00:35:14.167Z,10.70
2019-04-23T00:37:49.571Z,10.60
2019-04-23T00:40:23.416Z,10.60
2019-04-23T00:42:59.537Z,10.60
2019-04-23T00:45:34.634Z,10.50
2019-04-23T00:48:09.226Z,10.60
2019-04-23T00:53:10.935Z,10.50
2019-04-23T00:58:25.034Z,10.40
2019-04-23T01:00:53.977Z,10.40
2019-04-23T01:03:21.443Z,10.40
2019-04-23T01:05:52.645Z,10.40
2019-04-23T01:08:30.198Z,10.40
2019-04-23T01:11:12.707Z,10.30
2019-04-23T01:16:15.048Z,10.20
2019-04-23T01:21:13.850Z,10.20
2019-04-23T01:24:02.084Z,10.20
2019-04-23T01:26:50.302Z,10.20
2019-04-23T01:29:30.544Z,10.20
2019-04-23T01:31:57.275Z,10.10
2019-04-23T01:34:49.951Z,10.10
2019-04-23T01:37:14.822Z,10.10
2019-04-23T01:39:40.132Z,10.10
2019-04-23T01:42:22.477Z,10.00
2019-04-23T01:44:54.135Z,10.00
2019-04-23T01:47:25.007Z,10.00
2019-04-23T01:50:06.391Z,10.00
2019-04-23T01:52:34.444Z,10.00
2019-04-23T01:55:01.779Z,10.00
2019-04-23T01:57:40.901Z,9.90
2019-04-23T02:00:08.545Z,9.90
2019-04-23T02:02:46.071Z,9.90
2019-04-23T02:05:24.387Z,9.90
2019-04-23T02:07:51.033Z,9.90
2019-04-23T02:10:38.046Z,9.90
2019-04-23T02:15:34.940Z,9.90
2019-04-23T02:18:05.470Z,9.90
2019-04-23T02:20:43.018Z,9.80
2019-04-23T02:28:25.780Z,9.80
2019-04-23T02:31:25.249Z,9.80
2019-04-23T02:36:07.027Z,9.80
2019-04-23T02:43:59.118Z,9.60
2019-04-23T02:46:24.454Z,9.60
2019-04-23T02:51:37.180Z,9.60
2019-04-23T02:54:16.131Z,9.50
2019-04-23T02:56:50.821Z,9.50
2019-04-23T03:01:57.532Z,9.50
2019-04-23T03:04:32.829Z,9.40
2019-04-23T03:06:55.982Z,9.40
2019-04-23T03:12:06.374Z,9.30
2019-04-23T03:17:30.287Z,9.30
2019-04-23T03:20:10.653Z,9.30
2019-04-23T03:22:45.971Z,9.20
2019-04-23T03:25:31.967Z,9.20
2019-04-23T03:28:08.581Z,9.20
2019-04-23T03:38:41.748Z,9.10
2019-04-23T03:41:15.035Z,9.10
2019-04-23T03:43:39.322Z,9.10
2019-04-23T03:46:16.174Z,9.10
2019-04-23T03:48:52.641Z,9.10
2019-04-23T03:51:16.280Z,9.10
2019-04-23T04:01:29.190Z,9.10
2019-04-23T04:04:22.643Z,9.10
2019-04-23T04:06:43.741Z,9.10
2019-04-23T04:11:54.884Z,9.10
2019-04-23T04:14:36.326Z,9.20
2019-04-23T04:16:56.150Z,9.30
2019-04-23T04:27:06.078Z,10.00
2019-04-23T04:29:52.311Z,10.20
2019-04-23T04:32:03.612Z,10.50
2019-04-23T04:35:11.227Z,10.70
2019-04-23T04:37:36.079Z,10.90
2019-04-23T04:40:11.023Z,11.10
2019-04-23T04:42:24.848Z,11.20
2019-04-23T04:50:15.394Z,11.70
2019-04-23T04:55:42.226Z,11.90
2019-04-23T04:58:07.462Z,12.00
2019-04-23T05:00:54.292Z,12.20
2019-04-23T06:28:46.673Z,16.70
2019-04-23T06:43:37.196Z,17.60
2019-04-23T06:46:09.984Z,17.80
2019-04-23T06:48:35.598Z,18.10
2019-04-23T06:51:14.591Z,18.10
2019-04-23T06:53:45.071Z,18.00
2019-04-23T06:56:19.142Z,18.10
2019-04-23T06:58:50.440Z,18.20
2019-04-23T07:01:18.689Z,18.40
2019-04-23T07:07:29.730Z,18.80
2019-04-23T07:09:34.280Z,18.90
2019-04-23T07:12:08.556Z,19.00
2019-04-23T07:14:51.408Z,19.20
2019-04-23T07:17:09.203Z,19.40
2019-04-23T07:19:48.388Z,19.30
2019-04-23T07:25:34.325Z,19.50
2019-04-23T07:40:19.699Z,20.10
2019-04-23T07:56:53.844Z,21.10
2019-04-23T07:59:27.772Z,21.30
2019-04-23T09:43:03.788Z,20.30
2019-04-23T09:46:15.061Z,20.50
2019-04-23T09:59:02.985Z,20.60
2019-04-23T10:01:59.447Z,20.30
2019-04-23T10:07:27.107Z,19.80
2019-04-23T10:10:51.268Z,19.70
2019-04-23T10:13:26.146Z,19.70
2019-04-23T10:16:53.302Z,20.00
2019-04-23T10:19:42.818Z,20.20
2019-04-23T10:22:56.857Z,20.40
2019-04-23T10:25:34.143Z,20.50
2019-04-23T10:29:07.721Z,20.70
2019-04-23T10:31:40.013Z,20.80
2019-04-23T10:34:27.413Z,20.90
2019-04-23T10:37:09.561Z,20.90
2019-04-23T10:39:50.309Z,20.80
2019-04-23T10:42:25.422Z,20.80
2019-04-23T10:45:27.319Z,20.70
2019-04-23T10:48:54.816Z,20.50
2019-04-23T10:51:33.997Z,20.30
2019-04-23T10:54:37.963Z,20.10
2019-04-23T10:57:31.743Z,20.10
2019-04-23T11:01:06.313Z,20.20
2019-04-23T11:03:53.941Z,20.40
2019-04-23T11:06:37.243Z,20.60
2019-04-23T11:09:48.664Z,20.60
2019-04-23T11:13:19.360Z,20.70
2019-04-23T11:18:34.157Z,20.80
2019-04-23T11:24:45.955Z,20.70
2019-04-23T11:27:25.978Z,20.60
2019-04-23T11:33:39.531Z,20.40
2019-04-23T11:39:28.871Z,20.30
2019-04-23T11:42:16.714Z,20.50
2019-04-23T11:45:32.588Z,20.70
2019-04-23T11:48:51.186Z,20.80
2019-04-23T11:57:48.742Z,20.90
2019-04-23T12:00:39.028Z,21.10
2019-04-23T12:03:07.624Z,21.10
2019-04-23T12:06:12.383Z,21.20
2019-04-23T12:09:02.911Z,21.20
2019-04-23T12:22:22.273Z,20.40
2019-04-23T12:25:07.715Z,20.40
2019-04-23T12:27:30.738Z,20.40
2019-04-23T12:30:01.298Z,20.30
2019-04-23T12:38:13.904Z,20.20
2019-04-23T12:40:52.673Z,20.10
2019-04-23T12:43:19.167Z,20.20
2019-04-23T12:45:46.938Z,20.20
2019-04-23T12:51:17.116Z,20.20
2019-04-23T12:53:39.836Z,20.10
2019-04-23T12:56:08.969Z,20.00
2019-04-23T12:58:27.874Z,19.90
2019-04-23T13:01:19.984Z,19.90
2019-04-23T13:03:45.806Z,20.00
2019-04-23T13:06:17.350Z,20.10
2019-04-23T13:11:30.059Z,20.10
2019-04-23T13:14:19.487Z,20.10
2019-04-23T13:16:54.049Z,20.10
2019-04-23T13:19:33.951Z,20.00
2019-04-23T13:22:00.337Z,19.90
2019-04-23T13:24:48.949Z,19.90
2019-04-23T13:27:29.357Z,19.90
2019-04-23T13:30:02.054Z,19.90
2019-04-23T13:32:39.066Z,19.90
2019-04-23T13:35:22.120Z,19.90
2019-04-23T13:37:44.567Z,19.90
2019-04-23T13:40:09.542Z,19.90
2019-04-23T13:42:45.067Z,19.90
2019-04-23T13:45:45.948Z,20.00
2019-04-23T13:48:01.181Z,20.00
2019-04-23T13:50:38.536Z,20.00
2019-04-23T13:53:25.364Z,20.00
2019-04-23T13:55:26.660Z,20.10
2019-04-23T14:01:01.162Z,20.30
2019-04-23T14:03:21.676Z,20.30
2019-04-23T14:11:35.920Z,20.40
2019-04-23T14:14:08.539Z,20.50
2019-04-23T14:16:48.507Z,20.50
2019-04-23T14:21:39.269Z,20.40
2019-04-23T14:24:19.858Z,20.40
2019-04-23T14:26:50.862Z,20.30
2019-04-23T14:29:26.431Z,20.20
2019-04-23T14:31:53.729Z,20.20
2019-04-23T14:34:29.165Z,20.20
2019-04-23T14:39:36.696Z,20.00
2019-04-23T14:42:36.434Z,20.00
2019-04-23T14:44:49.752Z,19.90
2019-04-23T14:47:28.196Z,19.80
2019-04-23T14:50:17.360Z,19.80
2019-04-23T14:55:40.176Z,20.00
2019-04-23T14:57:52.582Z,20.10
2019-04-23T15:00:18.221Z,20.10
2019-04-23T15:05:17.374Z,20.10
2019-04-23T15:07:51.287Z,20.10
2019-04-23T15:10:26.405Z,20.10
2019-04-23T15:13:01.863Z,20.10
2019-04-23T15:15:39.166Z,20.10
2019-04-23T15:18:14.102Z,20.00
2019-04-23T15:20:53.351Z,20.00
2019-04-23T15:26:45.243Z,19.90
2019-04-23T15:28:08.860Z,19.80
2019-04-23T15:31:10.018Z,19.80
2019-04-23T15:33:45.120Z,19.80
2019-04-23T15:41:30.700Z,19.90
2019-04-23T15:44:01.547Z,19.90
2019-04-23T15:46:35.457Z,19.90
2019-04-23T15:49:09.942Z,19.80
2019-04-23T15:51:35.208Z,19.70
2019-04-23T15:56:44.527Z,19.70
2019-04-23T16:01:37.661Z,19.50
2019-04-23T16:03:49.648Z,19.50
2019-04-23T16:06:24.867Z,19.40
2019-04-23T16:09:39.867Z,19.40
2019-04-23T16:22:31.043Z,19.30
2019-04-23T16:25:17.873Z,19.20
2019-04-23T16:27:45.751Z,19.30
2019-04-23T16:30:19.137Z,19.40
2019-04-23T16:40:47.719Z,19.80
2019-04-23T16:43:28.339Z,19.90
2019-04-23T16:46:09.712Z,19.90
2019-04-23T16:48:57.890Z,19.90
2019-04-23T16:51:16.441Z,19.90
2019-04-23T16:53:37.445Z,20.00
2019-04-23T16:56:18.592Z,20.00
2019-04-23T16:58:55.129Z,20.10
2019-04-23T17:01:22.858Z,20.10
2019-04-23T17:04:03.589Z,20.10
2019-04-23T17:06:29.376Z,20.10
2019-04-23T17:11:48.359Z,20.10
2019-04-23T17:14:17.338Z,20.00
2019-04-23T17:21:54.932Z,19.80
2019-04-23T17:24:23.305Z,19.70
2019-04-23T17:27:01.493Z,19.50
2019-04-23T17:29:35.248Z,19.30
2019-04-23T17:32:10.036Z,19.20
2019-04-23T17:34:58.536Z,19.00
2019-04-23T17:37:32.538Z,18.90
2019-04-23T17:40:17.717Z,18.80
2019-04-23T17:43:01.511Z,18.70
2019-04-23T17:48:22.037Z,18.50
2019-04-23T17:53:29.897Z,18.30
2019-04-23T18:09:05.949Z,18.00
2019-04-23T18:14:03.877Z,17.90
2019-04-23T18:16:41.179Z,17.90
2019-04-23T18:21:52.023Z,17.80
2019-04-23T18:24:41.470Z,17.70
2019-04-23T18:29:53.624Z,17.60
2019-04-23T18:32:46.492Z,17.60
2019-04-23T18:35:20.226Z,17.60
2019-04-23T18:37:46.443Z,17.60
2019-04-23T18:40:13.797Z,17.60
2019-04-23T18:45:33.925Z,17.50
2019-04-23T18:48:26.228Z,17.50
2019-04-23T18:53:37.046Z,17.50
2019-04-23T18:58:35.277Z,17.60
2019-04-23T19:04:07.198Z,17.80
2019-04-23T19:06:34.614Z,17.90
2019-04-23T19:09:50.745Z,18.00
2019-04-23T19:12:31.407Z,18.10
2019-04-23T19:15:06.124Z,18.10
2019-04-23T19:20:17.972Z,18.20
2019-04-23T19:22:46.916Z,18.30
2019-04-23T19:25:14.493Z,18.30
2019-04-23T19:27:47.180Z,18.40
2019-04-23T19:30:43.129Z,18.40
2019-04-23T19:36:05.006Z,18.40
2019-04-23T19:38:23.893Z,18.30
2019-04-23T19:45:59.914Z,18.10
2019-04-23T19:54:06.074Z,17.90
2019-04-23T19:58:56.668Z,17.80
2019-04-23T20:01:21.029Z,17.70
2019-04-23T20:11:37.596Z,17.50
2019-04-23T20:14:21.354Z,17.50
2019-04-23T20:16:48.988Z,17.50
2019-04-23T20:19:19.009Z,17.40
2019-04-23T20:22:06.226Z,17.40
2019-04-23T20:27:06.152Z,17.30
2019-04-23T20:30:15.713Z,17.20
2019-04-23T20:32:06.076Z,17.30
2019-04-23T20:38:08.907Z,17.10
2019-04-23T20:40:17.846Z,17.10
2019-04-23T20:42:52.589Z,17.00
2019-04-23T20:45:20.745Z,17.00
2019-04-23T20:50:31.502Z,16.90
2019-04-23T20:52:57.550Z,16.90
2019-04-23T20:55:58.383Z,16.90
2019-04-23T20:58:20.919Z,16.90
2019-04-23T21:01:09.662Z,16.80
2019-04-23T21:06:10.232Z,16.70
2019-04-23T21:09:04.482Z,16.70
2019-04-23T21:11:13.821Z,16.70
2019-04-23T21:16:34.364Z,16.70
2019-04-23T21:19:03.410Z,16.70
2019-04-23T21:21:33.546Z,16.70
2019-04-23T21:24:01.318Z,16.60
2019-04-23T21:26:41.995Z,16.60
2019-04-23T21:29:04.003Z,16.60
2019-04-23T21:31:48.453Z,16.60
2019-04-23T21:34:32.025Z,16.60
2019-04-23T21:37:04.424Z,16.50
2019-04-23T21:40:04.746Z,16.50
2019-04-23T21:42:58.957Z,16.40
2019-04-23T21:45:26.023Z,16.40
2019-04-23T21:50:43.847Z,16.30
2019-04-23T21:53:07.162Z,16.30
2019-04-23T21:55:47.242Z,16.20
2019-04-23T21:58:17.297Z,16.20
2019-04-23T22:03:43.042Z,16.20
2019-04-23T22:06:10.129Z,16.10
2019-04-23T22:08:38.651Z,16.10
2019-04-23T22:11:33.935Z,16.00
2019-04-23T22:13:51.640Z,16.00
2019-04-23T22:16:14.591Z,16.00
2019-04-23T22:19:09.159Z,15.90
2019-04-23T22:24:54.598Z,15.80
2019-04-23T22:26:38.224Z,15.80
2019-04-23T22:29:14.360Z,15.80
2019-04-23T22:31:43.015Z,15.70
2019-04-23T22:34:16.765Z,15.70
2019-04-23T22:36:50.722Z,15.70
2019-04-23T22:41:58.257Z,15.60
2019-04-23T22:44:24.581Z,15.50
2019-04-23T22:49:41.811Z,15.50
2019-04-23T22:54:39.796Z,15.40
2019-04-23T22:57:06.398Z,15.40
2019-04-23T22:59:54.357Z,15.30
2019-04-23T23:03:00.898Z,15.30
2019-04-23T23:07:56.457Z,15.20
2019-04-23T23:10:22.246Z,15.20
2019-04-23T23:18:08.121Z,15.10
2019-04-23T23:20:36.083Z,15.10
2019-04-23T23:23:16.016Z,15.00
2019-04-23T23:25:39.267Z,14.90
2019-04-23T23:31:00.286Z,14.90
2019-04-23T23:33:24.687Z,14.90
2019-04-23T23:36:03.602Z,14.80
2019-04-23T23:38:33.562Z,14.80
2019-04-23T23:41:15.129Z,14.80
2019-04-23T23:43:54.435Z,14.80
2019-04-23T23:46:24.439Z,14.80
2019-04-23T23:48:48.495Z,14.70
2019-04-23T23:51:29.459Z,14.60
2019-04-23T23:56:30.209Z,14.70
